TAF KGUP
KGUP 072323Z 0800/0824 31008KT P6SM BKN070 FM080300 VRB03KT P6SM SCT080 SCT200 FM081800 23014G22KT P6SM BKN080=
METAR KGUP
WC KGUP
WS KGUP
WV KGUP